Truckton, Colorado
Current Conditions -  °F | °C
As of 3:56 AM on Friday 31 Oct 2014 (Local Time) from KABH Reporting Station
Clear Clear  
Wind Chill: 27°   Ceiling: Unl
Heat Index: 35°   Visibility: NA
Dew Point: 25°   Wind: 12mph
Humidity: 67%   Direction: 140°SE
Pressure: 30.41"   Gusts: NA
Location:  38.697°N, 104.225°W
Report Text: KABH 310956Z AUTO 14010KT CLR 02/M04 A3041 RMK AO2 SLP285 T00171039 $
Loading
Personal Weather Stations






























Interactive Weather Map
Tropical Storm Tracking
New forecast layout! Learn more

10-Day Weather Forecast

Advertisements
Track Severe Weather on mobile